Stations météo

réclame
Mon MeteoGroup
Dunstaffnage, Grande-Bretagne (99006): Température de l'air & dewpoint: 10.07.2019 11:00:00 - 16.07.2019 11:00:00 (BST)Dunstaffnage, Grande-Bretagne (99006): Température de l'air -20cm: 10.07.2019 11:00:00 - 16.07.2019 11:00:00 (BST)Dunstaffnage, Grande-Bretagne (99006): Vitesse du vent: 10.07.2019 11:00:00 - 16.07.2019 11:00:00 (BST)Dunstaffnage, Grande-Bretagne (99006): Direction du vent: 10.07.2019 11:00:00 - 16.07.2019 11:00:00 (BST)Dunstaffnage, Grande-Bretagne (99006): Quantités de précipitations: 10.07.2019 11:00:00 - 16.07.2019 11:00:00 (BST)
Date & Time tt [°C] td [°C] tt -20cm [°C] ff [km/h] ff [knt] dd rr [mm]
16.07.2019 11:00:00 - - - - - - -
16.07.2019 10:00:00 - - - - - - -
16.07.2019 09:00:00 14,4 12,9 - 5 3 NNW 0,0
16.07.2019 08:00:00 14,4 13,3 - 5 3 SW 0,0
16.07.2019 07:00:00 13,4 12,4 - 9 5 ENE 0,0
16.07.2019 06:00:00 12,8 11,9 - 11 6 SSW 0,0
16.07.2019 05:00:00 11,7 11,0 - 2 1 SE 0,0
16.07.2019 04:00:00 12,2 11,4 - 4 2 ENE 0,0
16.07.2019 03:00:00 12,0 11,2 - 2 1 NE 0,0
16.07.2019 02:00:00 12,4 11,3 - 0 0 N 0,0
16.07.2019 01:00:00 12,9 11,5 - 4 2 SW 0,0
16.07.2019 00:00:00 14,4 12,1 - 4 2 ENE 0,0
15.07.2019 23:00:00 14,9 11,8 - 4 2 S 0,0
15.07.2019 22:00:00 15,6 12,2 - 5 3 SW 0,0
15.07.2019 21:00:00 17,8 13,0 - 2 1 WNW 0,0
15.07.2019 20:00:00 19,3 13,3 - 11 6 WSW 0,0
15.07.2019 19:00:00 20,0 14,2 - 13 7 WSW 0,0
15.07.2019 18:00:00 22,3 14,3 - 13 7 W 0,0
15.07.2019 17:00:00 21,9 13,0 - 9 5 WNW 0,0
15.07.2019 16:00:00 21,0 12,7 - 8 4 NW 0,0
15.07.2019 15:00:00 19,9 13,9 - 4 2 NW 0,0
15.07.2019 14:00:00 18,9 12,5 - 9 5 W 0,0
15.07.2019 13:00:00 18,5 12,2 - 9 5 NW 0,0
15.07.2019 12:00:00 19,0 14,0 - 11 6 W 0,0
15.07.2019 11:00:00 18,1 13,9 - 9 5 W 0,0
15.07.2019 10:00:00 17,6 13,8 16,7 8 4 NW 0,0
15.07.2019 09:00:00 17,2 13,5 - 9 5 ENE 0,0
15.07.2019 08:00:00 15,8 12,5 - 2 1 ENE 0,0
15.07.2019 07:00:00 12,6 11,3 - 2 1 ESE 0,0
15.07.2019 06:00:00 11,4 11,0 - 8 4 E 0,0
15.07.2019 05:00:00 10,5 10,0 - 8 4 E 0,0
15.07.2019 04:00:00 10,6 10,2 - 4 2 ENE 0,0
15.07.2019 03:00:00 9,3 8,7 - 0 0 N 0,0
15.07.2019 02:00:00 9,6 8,9 - 2 1 E 0,0
15.07.2019 01:00:00 9,9 8,8 - 2 1 SSW 0,0
15.07.2019 00:00:00 10,7 9,2 - 2 1 SSW 0,0
14.07.2019 23:00:00 12,4 10,3 - 2 1 S 0,0
14.07.2019 22:00:00 14,4 10,3 - 5 3 SW 0,0
14.07.2019 21:00:00 16,2 10,5 - 8 4 SW 0,0
14.07.2019 20:00:00 18,0 11,3 - 13 7 WSW 0,0
14.07.2019 19:00:00 17,9 10,6 - 15 8 SSW 0,0
14.07.2019 18:00:00 20,5 12,0 - 13 7 WSW 0,0
14.07.2019 17:00:00 21,4 13,3 - 15 8 WSW 0,0
14.07.2019 16:00:00 20,8 12,8 - 13 7 W 0,0
14.07.2019 15:00:00 20,5 12,4 - 13 7 W 0,0
14.07.2019 14:00:00 19,1 12,1 - 11 6 W 0,0
14.07.2019 13:00:00 18,1 12,5 - 9 5 W 0,0
14.07.2019 12:00:00 17,7 12,5 - 9 5 WNW 0,0
14.07.2019 11:00:00 16,1 11,8 - 9 5 WNW 0,0
14.07.2019 10:00:00 15,3 10,7 16,5 5 3 NW 0,0
14.07.2019 09:00:00 15,3 11,6 - 4 2 ENE 0,0
14.07.2019 08:00:00 13,2 11,3 - 5 3 NE 0,0
14.07.2019 07:00:00 11,4 10,8 - 2 1 NE 0,0
14.07.2019 06:00:00 8,3 7,9 - 2 1 SSW 0,0
14.07.2019 05:00:00 8,0 7,4 - 4 2 SW 0,0
14.07.2019 04:00:00 9,0 8,3 - 2 1 SSW 0,0
14.07.2019 03:00:00 9,4 8,5 - 5 3 SSW 0,0
14.07.2019 02:00:00 10,3 9,0 - 4 2 WSW 0,0
14.07.2019 01:00:00 11,5 9,5 - 5 3 W 0,0
14.07.2019 00:00:00 12,6 9,3 - 8 4 W 0,0
13.07.2019 23:00:00 13,5 9,7 - 13 7 WNW 0,0
13.07.2019 22:00:00 14,2 9,1 - 9 5 NW 0,0
13.07.2019 21:00:00 15,7 9,8 - 11 6 WNW 0,0
13.07.2019 20:00:00 15,7 9,7 - 16 9 WNW 0,0
13.07.2019 19:00:00 16,4 10,5 - 16 9 WNW 0,0
13.07.2019 18:00:00 17,8 11,7 - 16 9 W 0,0
13.07.2019 17:00:00 17,9 12,2 - 26 14 W 0,0
13.07.2019 16:00:00 18,2 12,4 - 22 12 W 0,0
13.07.2019 15:00:00 18,0 12,2 - 22 12 W 0,0
13.07.2019 14:00:00 17,6 12,9 - 15 8 WNW 0,0
13.07.2019 13:00:00 17,5 12,3 - 15 8 W 0,0
13.07.2019 12:00:00 17,1 13,5 - 16 9 W 0,0
13.07.2019 11:00:00 15,6 11,3 - 18 10 WNW 0,0
13.07.2019 10:00:00 14,9 12,0 17,0 13 7 WSW 0,0
13.07.2019 09:00:00 14,6 12,1 - 15 8 WNW 0,0
13.07.2019 08:00:00 14,1 12,2 - 13 7 W 0,0
13.07.2019 07:00:00 13,8 12,4 - 15 8 W 0,0
13.07.2019 06:00:00 13,8 12,8 - 16 9 W 0,0
13.07.2019 05:00:00 13,8 12,8 - 15 8 W 0,0
13.07.2019 04:00:00 13,9 12,8 - 15 8 W 0,0
13.07.2019 03:00:00 13,9 12,8 - 16 9 W 0,0
13.07.2019 02:00:00 14,0 13,0 - 15 8 W 0,0
13.07.2019 01:00:00 14,2 13,0 - 9 5 SW 0,0
13.07.2019 00:00:00 14,4 12,9 - 13 7 W 0,0
12.07.2019 23:00:00 15,0 13,2 - 9 5 W 0,0
12.07.2019 22:00:00 15,0 13,3 - 13 7 W 0,0
12.07.2019 21:00:00 15,5 13,7 - 8 4 WSW 0,0
12.07.2019 20:00:00 16,3 13,7 - 21 11 W 0,0
12.07.2019 19:00:00 16,5 13,0 - 18 10 W 0,0
12.07.2019 18:00:00 17,9 13,9 - 16 9 W 0,0
12.07.2019 17:00:00 18,1 13,8 - 13 7 W 0,0
12.07.2019 16:00:00 18,6 13,4 - 15 8 W 0,0
12.07.2019 15:00:00 18,8 14,8 - 16 9 W 0,0
12.07.2019 14:00:00 18,5 14,5 - 15 8 W 0,0
12.07.2019 13:00:00 18,3 14,6 - 11 6 W 0,0
12.07.2019 12:00:00 18,1 14,9 - 9 5 W 0,0
12.07.2019 11:00:00 17,6 14,1 - 11 6 W 0,0
12.07.2019 10:00:00 15,8 14,4 16,4 9 5 NW 0,0
12.07.2019 09:00:00 14,3 13,6 - 5 3 NW 0,0
12.07.2019 08:00:00 13,9 13,4 - 4 2 NNE 0,0
12.07.2019 07:00:00 13,5 13,1 - 2 1 ESE 0,0
12.07.2019 06:00:00 13,2 12,7 - 4 2 SW 0,0
12.07.2019 05:00:00 13,0 12,6 - 5 3 W 0,0
12.07.2019 04:00:00 13,1 12,6 - 8 4 W 0,0
12.07.2019 03:00:00 13,1 12,6 - 0 0 N 0,0
12.07.2019 02:00:00 12,9 12,4 - 8 4 SSW 0,0
12.07.2019 01:00:00 13,2 12,6 - 5 3 SW 0,0
12.07.2019 00:00:00 13,4 12,7 - 8 4 WSW 0,0
11.07.2019 23:00:00 13,3 12,4 - 4 2 E 0,0
11.07.2019 22:00:00 13,7 12,4 - 8 4 SW 0,0
11.07.2019 21:00:00 14,6 12,4 - 9 5 SW 0,0
11.07.2019 20:00:00 15,4 13,0 - 11 6 SW 0,0
11.07.2019 19:00:00 16,7 12,9 - 13 7 WSW 0,0
11.07.2019 18:00:00 16,3 12,1 - 11 6 SW 0,0
11.07.2019 17:00:00 16,5 13,1 - 16 9 SW 0,0
11.07.2019 16:00:00 16,8 13,6 - 15 8 SW 0,0
11.07.2019 15:00:00 16,4 13,3 - 18 10 SSW 0,0
11.07.2019 14:00:00 16,8 13,6 - 18 10 SW 0,0
11.07.2019 13:00:00 17,0 12,4 - 15 8 SW 0,0
11.07.2019 12:00:00 18,0 13,9 - 13 7 SW 0,0
11.07.2019 11:00:00 17,2 14,9 - 5 3 SSW 0,0
11.07.2019 10:00:00 15,3 14,9 15,9 13 7 SW 0,0
11.07.2019 09:00:00 14,4 14,1 - 16 9 SW 0,0
11.07.2019 08:00:00 15,4 15,1 - 9 5 SW 5,6
11.07.2019 07:00:00 15,8 15,5 - 8 4 S 0,6
11.07.2019 06:00:00 15,2 15,0 - 8 4 SE 0,2
11.07.2019 05:00:00 14,9 14,6 - 5 3 ESE 0,0
11.07.2019 04:00:00 14,8 14,6 - 9 5 ESE 0,2
11.07.2019 03:00:00 14,5 14,2 - 4 2 ENE 3,4
11.07.2019 02:00:00 14,3 14,0 - 8 4 ENE 0,0
11.07.2019 01:00:00 13,9 13,5 - 9 5 ENE 0,0
11.07.2019 00:00:00 14,4 13,8 - 0 0 N 0,0
10.07.2019 23:00:00 14,6 14,0 - 2 1 WNW 0,2
10.07.2019 22:00:00 14,8 13,4 - 5 3 WNW 0,2
10.07.2019 21:00:00 16,4 14,7 - 2 1 NE 0,0
10.07.2019 20:00:00 17,0 15,2 - 5 3 S 0,0
10.07.2019 19:00:00 16,5 15,2 - 9 5 SW 0,0
10.07.2019 18:00:00 17,2 16,1 - 9 5 SW 0,0
10.07.2019 17:00:00 16,8 15,9 - 13 7 SW 0,0
10.07.2019 16:00:00 16,7 15,9 - 13 7 SW 0,0
10.07.2019 15:00:00 16,9 15,9 - 11 6 SSW 0,0
10.07.2019 14:00:00 16,8 15,7 - 9 5 SW 0,0
10.07.2019 13:00:00 16,6 15,2 - 11 6 SSW 0,0
10.07.2019 12:00:00 16,7 16,0 - 9 5 SW 0,4
10.07.2019 11:00:00 16,1 15,6 - 9 5 S 0,2

tt = Température de l'air
td = dewpoint
tt -20cm = Température de l'air -20cm
ff = Vitesse du vent
dd = Direction du vent
rr = Quantités de précipitations

stations d'obs. à proximité